Paolo I — IJTO — position and weather

sailwx.info

Track history (hours):
 
Tides and Currents Weather Stations Pressure Air Temp Water Temp Dewpoint Dewpoint Depression Visibility Wind Speed Wind Dir Waves Ship Positions

Paolo I

Last reported at 2018-Jul-18 07:26 UTC. Time now 2018-Jul-18 23:26 UTC.
Position N 38°39' E 013°24'.

Length 18 m; draft 4 m.

Type: Fishing. MMSI: 247143810.

Date/timePositionNaut miles runAvg speedWind from/ knotsBaromVisibWave heightAir tempDewpointWater temp
2018-Jul-18 07:26N 38°39' E 013°24'4 7.6
2018-Jul-18 06:58N 38°35' E 013°25'4 7.6
2018-Jul-18 06:30N 38°32' E 013°26'4 7.5
2018-Jul-18 06:00N 38°28' E 013°27'4 7.7
2018-Jul-18 05:30N 38°24' E 013°28'4 7.7
2018-Jul-18 05:00N 38°20' E 013°29'4 7.7
2018-Jul-18 04:30N 38°17' E 013°30'4 7.7
2018-Jul-18 04:00N 38°13' E 013°31'4 8.0
2018-Jul-18 03:30N 38°09' E 013°32'4 7.1
2018-Jul-18 03:00N 38°05' E 013°32'0 0.1
2018-Jul-18 02:28N 38°05' E 013°32'0 0.0
2018-Jul-18 01:24N 38°05' E 013°32'0 0.0
2018-Jul-17 00:26N 38°05' E 013°32'0 0.0
2018-Jul-16 16:01N 38°05' E 013°32'0 0.0
2018-Jul-16 15:33N 38°05' E 013°32'0 0.0
2018-Jul-16 15:14N 38°05' E 013°32'0 0.0
2018-Jul-16 15:00N 38°05' E 013°32'0 0.0
2018-Jul-16 13:30N 38°05' E 013°32'0 0.0
2018-Jul-16 06:21N 38°05' E 013°32'0 0.0
2018-Jul-16 06:00N 38°05' E 013°32'0 0.0
2018-Jul-16 02:46N 38°05' E 013°32'0 0.0
2018-Jul-16 02:27N 38°05' E 013°32'0 0.0
2018-Jul-16 01:59N 38°05' E 013°32'0 0.0
2018-Jul-15 04:31N 38°05' E 013°32'0 0.4
2018-Jul-15 04:30N 38°05' E 013°32'0 0.0
2018-Jul-15 03:53N 38°05' E 013°32'0 0.0
2018-Jul-15 03:28N 38°05' E 013°32'0 0.0
2018-Jul-14 00:52N 38°05' E 013°32'0 0.3
2018-Jul-14 00:30N 38°05' E 013°33'0 0.0
2018-Jul-14 00:01N 38°05' E 013°33'0 0.0
2018-Jul-13 23:30N 38°05' E 013°33'0 0.1
2018-Jul-13 23:00N 38°05' E 013°33'5 7.6
2018-Jul-13 22:21N 38°10' E 013°33'3 8.2
2018-Jul-13 22:00N 38°13' E 013°34'4 8.2
2018-Jul-13 21:29N 38°17' E 013°34'4 8.1
2018-Jul-13 21:00N 38°21' E 013°35'4 8.2
2018-Jul-13 20:30N 38°25' E 013°35'4 8.4
2018-Jul-13 20:00N 38°29' E 013°35'4 8.4
2018-Jul-13 19:29N 38°34' E 013°34'9 8.4
2018-Jul-13 18:26N 38°42' E 013°33'4 8.4
2018-Jul-13 18:00N 38°46' E 013°33'4 8.5
2018-Jul-13 17:30N 38°50' E 013°32'4 8.6
2018-Jul-13 17:00N 38°55' E 013°32'4 8.5
2018-Jul-13 16:30N 38°59' E 013°32'4 8.4
2018-Jul-13 16:01N 39°03' E 013°32'4 8.1
2018-Jul-13 15:30N 39°07' E 013°32'4 8.0
2018-Jul-13 15:01N 39°11' E 013°31'4 7.9
2018-Jul-13 14:31N 39°15' E 013°30'9 0.3
2018-Jul-12 09:37N 39°18' E 013°19'0 3.4
2018-Jul-12 09:30N 39°18' E 013°20'3 6.3
2018-Jul-12 09:00N 39°17' E 013°23'3 6.3
2018-Jul-12 08:30N 39°16' E 013°27'3 4.8
2018-Jul-12 07:59N 39°16' E 013°30'0 0.2
2018-Jul-12 07:30N 39°16' E 013°30'0 0.3
2018-Jul-12 06:59N 39°16' E 013°30'1 0.4
2018-Jul-12 05:06N 39°16' E 013°29'0 0.5
2018-Jul-12 04:58N 39°16' E 013°29'0 0.5
2018-Jul-12 04:30N 39°15' E 013°29'0 0.4
2018-Jul-12 03:56N 39°15' E 013°28'0 0.4
2018-Jul-12 03:26N 39°15' E 013°28'0 0.4
2018-Jul-12 03:00N 39°15' E 013°28'0 0.4
2018-Jul-12 02:30N 39°15' E 013°28'0 0.4
2018-Jul-12 02:00N 39°15' E 013°28'0 0.4
2018-Jul-12 01:23N 39°15' E 013°27'0 0.5
2018-Jul-12 01:00N 39°15' E 013°27'0 0.5
2018-Jul-12 00:31N 39°14' E 013°27'  
Track history (hours):
 
Tides and Currents Weather Stations Pressure Air Temp Water Temp Dewpoint Dewpoint Depression Visibility Wind Speed Wind Dir Waves Ship Positions

Paolo I

Last reported at 2018-Jul-18 07:26 UTC. Time now 2018-Jul-18 23:26 UTC.
Position N 38°39' E 013°24'.

Length 18 m; draft 4 m.

Type: Fishing. MMSI: 247143810.

Date/timePositionNaut miles runAvg speedWind from/ knotsBaromVisibWave heightAir tempDewpointWater temp
2018-Jul-18 07:26N 38°39' E 013°24'4 7.6
2018-Jul-18 06:58N 38°35' E 013°25'4 7.6
2018-Jul-18 06:30N 38°32' E 013°26'4 7.5
2018-Jul-18 06:00N 38°28' E 013°27'4 7.7
2018-Jul-18 05:30N 38°24' E 013°28'4 7.7
2018-Jul-18 05:00N 38°20' E 013°29'4 7.7
2018-Jul-18 04:30N 38°17' E 013°30'4 7.7
2018-Jul-18 04:00N 38°13' E 013°31'4 8.0
2018-Jul-18 03:30N 38°09' E 013°32'4 7.1
2018-Jul-18 03:00N 38°05' E 013°32'0 0.1
2018-Jul-18 02:28N 38°05' E 013°32'0 0.0
2018-Jul-18 01:24N 38°05' E 013°32'0 0.0
2018-Jul-17 00:26N 38°05' E 013°32'0 0.0
2018-Jul-16 16:01N 38°05' E 013°32'0 0.0
2018-Jul-16 15:33N 38°05' E 013°32'0 0.0
2018-Jul-16 15:14N 38°05' E 013°32'0 0.0
2018-Jul-16 15:00N 38°05' E 013°32'0 0.0
2018-Jul-16 13:30N 38°05' E 013°32'0 0.0
2018-Jul-16 06:21N 38°05' E 013°32'0 0.0
2018-Jul-16 06:00N 38°05' E 013°32'0 0.0
2018-Jul-16 02:46N 38°05' E 013°32'0 0.0
2018-Jul-16 02:27N 38°05' E 013°32'0 0.0
2018-Jul-16 01:59N 38°05' E 013°32'0 0.0
2018-Jul-15 04:31N 38°05' E 013°32'0 0.4
2018-Jul-15 04:30N 38°05' E 013°32'0 0.0
2018-Jul-15 03:53N 38°05' E 013°32'0 0.0
2018-Jul-15 03:28N 38°05' E 013°32'0 0.0
2018-Jul-14 00:52N 38°05' E 013°32'0 0.3
2018-Jul-14 00:30N 38°05' E 013°33'0 0.0
2018-Jul-14 00:01N 38°05' E 013°33'0 0.0
2018-Jul-13 23:30N 38°05' E 013°33'0 0.1
2018-Jul-13 23:00N 38°05' E 013°33'5 7.6
2018-Jul-13 22:21N 38°10' E 013°33'3 8.2
2018-Jul-13 22:00N 38°13' E 013°34'4 8.2
2018-Jul-13 21:29N 38°17' E 013°34'4 8.1
2018-Jul-13 21:00N 38°21' E 013°35'4 8.2
2018-Jul-13 20:30N 38°25' E 013°35'4 8.4
2018-Jul-13 20:00N 38°29' E 013°35'4 8.4
2018-Jul-13 19:29N 38°34' E 013°34'9 8.4
2018-Jul-13 18:26N 38°42' E 013°33'4 8.4
2018-Jul-13 18:00N 38°46' E 013°33'4 8.5
2018-Jul-13 17:30N 38°50' E 013°32'4 8.6
2018-Jul-13 17:00N 38°55' E 013°32'4 8.5
2018-Jul-13 16:30N 38°59' E 013°32'4 8.4
2018-Jul-13 16:01N 39°03' E 013°32'4 8.1
2018-Jul-13 15:30N 39°07' E 013°32'4 8.0
2018-Jul-13 15:01N 39°11' E 013°31'4 7.9
2018-Jul-13 14:31N 39°15' E 013°30'9 0.3
2018-Jul-12 09:37N 39°18' E 013°19'0 3.4
2018-Jul-12 09:30N 39°18' E 013°20'3 6.3
2018-Jul-12 09:00N 39°17' E 013°23'3 6.3
2018-Jul-12 08:30N 39°16' E 013°27'3 4.8
2018-Jul-12 07:59N 39°16' E 013°30'0 0.2
2018-Jul-12 07:30N 39°16' E 013°30'0 0.3
2018-Jul-12 06:59N 39°16' E 013°30'1 0.4
2018-Jul-12 05:06N 39°16' E 013°29'0 0.5
2018-Jul-12 04:58N 39°16' E 013°29'0 0.5
2018-Jul-12 04:30N 39°15' E 013°29'0 0.4
2018-Jul-12 03:56N 39°15' E 013°28'0 0.4
2018-Jul-12 03:26N 39°15' E 013°28'0 0.4
2018-Jul-12 03:00N 39°15' E 013°28'0 0.4
2018-Jul-12 02:30N 39°15' E 013°28'0 0.4
2018-Jul-12 02:00N 39°15' E 013°28'0 0.4
2018-Jul-12 01:23N 39°15' E 013°27'0 0.5
2018-Jul-12 01:00N 39°15' E 013°27'0 0.5
2018-Jul-12 00:31N 39°14' E 013°27'  

Dump ship's entire track history